TFM - Tactical Decision Aid
ID: Runway Winds: CIG/VIS Threshold:

KCLT - Charlotte/Douglas In, NC, US

Updated at: 1237 UTC 15 Jul 2020
Latest TAF at: 1137 UTC 15 Jul 2020

TAF Board

Time1152Z 15/13Z 15/14Z 15/15Z 15/16Z 15/17Z 15/18Z 15/19Z 15/20Z 15/21Z 15/22Z 15/23Z 16/00Z 16/01Z>>
Type OBS PRVL PRVL PRVL PRVL PRVL PRVL PRVL PRVL PRVL PRVL PRVL PRVL PRVL
VIS 10 >6 >6 >6 >6 >6 >6 >6 >6 >6 >6 >6 >6 >6
CIG -- -- -- -- -- 250 250 250 250 250 250 250 250 250
Cover SCT SCT SCT SCT SCT BKN BKN BKN BKN BKN BKN BKN BKN BKN
FltCat VFR VFR VFR VFR VFR VFR VFR VFR VFR VFR VFR VFR VFR VFR
WX -- -- -- -- -- -- -- -- VCSH VCSH VCSH VCSH VCSH VCSH
WDir 40 40 40 40 40 130 130 130 150 150 150 150 150 150
WSpd 5 3 3 3 3 5 5 5 6 6 6 6 6 6
WGst -- -- -- -- -- -- -- -- -- -- -- -- -- --

TDA Impact Legend

  None Marginal Slight Moderate High
Visibility (sm) >5 3≤X≤5 1≤X<3 0.5≤X<1 <0.5
Ceiling (100 ft) >30 10≤X≤30 4≤X<10 2≤X<4 <2
Wind Speed (kt) <15 15≤X<25 25≤X<30 ≥30
Wind Gust (kt) <15 15≤X<25 25≤X<35 ≥35
Weather No Wx Reported VCTS -TS,-FZRA TS,FZRA +TS,+FZRA
TAF
KCLT 151137Z 1512/1618 04003KT P6SM SCT090
  FM151700 13005KT P6SM SCT060 BKN250
  FM152000 15006KT P6SM VCSH SCT060 BKN250
  FM160300 14004KT P6SM SCT060 BKN120
  FM161400 16005KT P6SM SCT060 BKN120


METAR
KCLT 151152Z 04005KT 10SM FEW055 FEW100 SCT250 27/21 A3011 RMK AO2 SLP184 T02670211 10283 20228 53013
KCLT 151052Z 35005KT 10SM FEW055 FEW090 SCT250 23/21 A3009 RMK AO2 SLP180 TCU DSNT E T02280206
KCLT 150952Z 31003KT 10SM BKN090 24/21 A3008 RMK AO2 SLP175 T02390211

Radar Display
Forecast Discussion